Time;durP1;ratioP1;P1;durP2;ratioP2;P2;SDS_P1;SDS_P2;PMS_P1;PMS_P2;Temp;Humidity;BMP_temperature;BMP_pressure;BME280_temperature;BME280_humidity;BME280_pressure;Samples;Min_cycle;Max_cycle;Signal;HPM_P1;HPM_P2
2022/09/04 00:00:12;;;;;;;1.10;0.60;;;16.40;99.90;;;;;;5096301;28;20489;-79
2022/09/04 00:02:56;;;;;;;1.17;0.50;;;16.30;99.90;;;;;;5096522;28;20825;-79
2022/09/04 00:05:28;;;;;;;0.60;0.40;;;16.30;99.90;;;;;;5096259;28;20436;-79
2022/09/04 00:08:14;;;;;;;1.13;0.47;;;16.30;99.90;;;;;;5096508;28;20431;-79
2022/09/04 00:10:51;;;;;;;1.60;1.13;;;16.30;99.90;;;;;;5096143;28;20431;-79
2022/09/04 00:13:22;;;;;;;0.53;0.40;;;16.20;99.90;;;;;;5096363;28;20464;-79
2022/09/04 00:15:53;;;;;;;0.47;0.40;;;16.20;99.90;;;;;;5096367;28;20424;-78
2022/09/04 00:18:25;;;;;;;0.77;0.73;;;16.20;99.90;;;;;;5096369;28;20428;-78
2022/09/04 00:20:57;;;;;;;0.40;0.40;;;16.20;99.90;;;;;;5096213;28;20472;-78
2022/09/04 00:23:30;;;;;;;0.57;0.57;;;16.20;99.90;;;;;;5095824;28;21002;-78
2022/09/04 00:26:02;;;;;;;0.87;0.40;;;16.20;99.90;;;;;;5094630;28;20472;-78
2022/09/04 00:28:36;;;;;;;0.67;0.67;;;16.20;99.90;;;;;;5096148;28;20424;-79
2022/09/04 00:31:14;;;;;;;0.43;0.40;;;16.10;99.90;;;;;;5096085;28;20831;-79
2022/09/04 00:33:49;;;;;;;0.60;0.60;;;16.10;99.90;;;;;;5095982;28;20471;-79
2022/09/04 00:36:18;;;;;;;0.60;0.47;;;16.00;99.90;;;;;;5096039;28;20432;-78
2022/09/04 00:38:49;;;;;;;0.50;0.50;;;16.00;99.90;;;;;;5095614;28;20448;-78
2022/09/04 00:41:26;;;;;;;1.70;0.90;;;16.00;99.90;;;;;;5095808;28;20555;-78
2022/09/04 00:44:13;;;;;;;0.70;0.70;;;16.00;99.90;;;;;;5095547;28;20930;-78
2022/09/04 00:47:06;;;;;;;1.77;0.93;;;16.00;99.90;;;;;;5095787;28;20436;-78
2022/09/04 00:49:51;;;;;;;0.40;0.30;;;16.00;99.90;;;;;;5085272;28;20459;-78
2022/09/04 00:52:33;;;;;;;0.50;0.50;;;15.90;99.90;;;;;;5095611;28;20460;-78
2022/09/04 00:55:24;;;;;;;0.70;0.70;;;15.90;99.90;;;;;;5095640;28;20423;-78
2022/09/04 00:58:23;;;;;;;0.57;0.40;;;15.90;99.90;;;;;;5095554;28;20435;-78
2022/09/04 01:00:56;;;;;;;0.70;0.53;;;15.90;99.90;;;;;;5079521;28;20533;-78
2022/09/04 01:03:54;;;;;;;0.40;0.40;;;15.90;99.90;;;;;;5095395;28;20459;-78
2022/09/04 01:06:31;;;;;;;2.10;0.70;;;15.90;99.90;;;;;;5090235;28;20459;-78
2022/09/04 01:09:42;;;;;;;0.50;0.50;;;15.80;99.90;;;;;;5095949;28;20424;-78
2022/09/04 01:12:23;;;;;;;1.00;0.70;;;15.80;99.90;;;;;;5079485;28;20476;-78
2022/09/04 01:14:58;;;;;;;0.60;0.47;;;15.90;99.90;;;;;;5095230;28;20428;-78
2022/09/04 01:17:31;;;;;;;0.57;0.40;;;15.80;99.90;;;;;;5095216;28;20424;-78
2022/09/04 01:20:14;;;;;;;1.27;0.50;;;15.90;99.90;;;;;;5094762;28;20975;-78
2022/09/04 01:23:04;;;;;;;1.70;0.60;;;15.90;99.90;;;;;;5095004;28;20468;-78
2022/09/04 01:25:58;;;;;;;0.50;0.50;;;16.00;99.90;;;;;;5094797;28;20516;-78
2022/09/04 01:28:31;;;;;;;0.60;0.50;;;15.90;99.90;;;;;;5094979;28;20435;-78
2022/09/04 01:31:07;;;;;;;1.63;0.50;;;15.90;99.90;;;;;;5094907;28;20428;-78
2022/09/04 01:33:40;;;;;;;0.73;0.73;;;15.90;99.90;;;;;;5094784;28;20486;-78
2022/09/04 01:36:16;;;;;;;0.50;0.50;;;15.90;99.90;;;;;;5094831;28;20491;-78
2022/09/04 01:38:49;;;;;;;1.17;0.67;;;15.80;99.90;;;;;;5094410;28;20428;-78
2022/09/04 01:41:23;;;;;;;0.73;0.40;;;15.80;99.90;;;;;;5094322;28;20993;-78
2022/09/04 01:43:50;;;;;;;1.57;0.70;;;15.80;99.90;;;;;;5094368;28;20800;-78
2022/09/04 01:46:30;;;;;;;0.60;0.50;;;15.70;99.90;;;;;;5094593;28;20439;-78
2022/09/04 01:49:06;;;;;;;0.70;0.53;;;15.70;99.90;;;;;;5094248;28;20432;-78
2022/09/04 01:51:39;;;;;;;1.00;0.60;;;15.70;99.90;;;;;;5094503;28;20412;-78
2022/09/04 01:54:31;;;;;;;0.47;0.47;;;15.70;99.90;;;;;;5094467;28;20451;-78
2022/09/04 01:57:10;;;;;;;0.60;0.47;;;15.60;99.90;;;;;;5094458;28;20455;-78
2022/09/04 01:59:50;;;;;;;0.80;0.53;;;15.60;99.90;;;;;;5094351;28;20754;-78
2022/09/04 02:02:24;;;;;;;0.40;0.40;;;15.60;99.90;;;;;;5094282;28;20464;-78
2022/09/04 02:04:58;;;;;;;0.40;0.40;;;15.50;99.90;;;;;;5094302;28;20443;-79
2022/09/04 02:07:30;;;;;;;0.40;0.40;;;15.50;99.90;;;;;;5094273;28;20428;-79
2022/09/04 02:10:06;;;;;;;1.40;0.50;;;15.50;99.90;;;;;;5094196;28;20428;-79
2022/09/04 02:12:49;;;;;;;0.40;0.40;;;15.40;99.90;;;;;;5093765;28;20993;-78
2022/09/04 02:15:30;;;;;;;1.40;0.50;;;15.40;99.90;;;;;;5093749;28;20904;-78
2022/09/04 02:18:10;;;;;;;0.40;0.40;;;15.40;99.90;;;;;;5094066;28;20462;-79
2022/09/04 02:20:44;;;;;;;0.70;0.60;;;15.40;99.90;;;;;;5093961;28;20464;-78
2022/09/04 02:23:18;;;;;;;0.87;0.50;;;15.40;99.90;;;;;;5093653;28;20520;-78
2022/09/04 02:25:50;;;;;;;0.40;0.40;;;15.40;99.90;;;;;;5093371;28;20492;-78
2022/09/04 02:28:28;;;;;;;1.23;0.40;;;15.40;99.90;;;;;;5093616;28;20440;-78
2022/09/04 02:31:02;;;;;;;0.50;0.50;;;15.30;99.90;;;;;;5093863;28;20428;-79
2022/09/04 02:33:37;;;;;;;0.40;0.33;;;15.30;99.90;;;;;;5093794;28;20468;-78
2022/09/04 02:36:12;;;;;;;1.07;0.60;;;15.40;99.90;;;;;;5094627;28;20450;-78
2022/09/04 02:38:47;;;;;;;0.60;0.40;;;15.40;99.90;;;;;;5093755;28;20428;-78
2022/09/04 02:41:22;;;;;;;0.60;0.40;;;15.30;99.90;;;;;;5093682;28;20839;-79
2022/09/04 02:44:10;;;;;;;0.40;0.40;;;15.40;99.90;;;;;;5094305;28;20822;-78
2022/09/04 02:46:49;;;;;;;0.83;0.83;;;15.40;99.90;;;;;;5093317;28;20432;-78
2022/09/04 02:49:28;;;;;;;0.60;0.60;;;15.30;99.90;;;;;;5092911;28;20428;-78
2022/09/04 02:52:16;;;;;;;0.70;0.57;;;15.40;99.90;;;;;;5093837;28;20463;-78
2022/09/04 02:55:00;;;;;;;0.80;0.63;;;15.40;99.90;;;;;;5093525;28;20456;-78
2022/09/04 02:57:39;;;;;;;1.00;0.43;;;15.40;99.90;;;;;;5093270;28;20927;-78
2022/09/04 03:00:13;;;;;;;0.93;0.50;;;15.40;99.90;;;;;;5093445;28;20432;-78
2022/09/04 03:02:45;;;;;;;0.93;0.40;;;15.40;99.90;;;;;;5093440;28;20463;-78
2022/09/04 03:05:19;;;;;;;0.93;0.93;;;15.40;99.90;;;;;;5093454;28;20432;-78
2022/09/04 03:07:53;;;;;;;0.70;0.50;;;15.40;99.90;;;;;;5093471;28;20424;-78
2022/09/04 03:10:25;;;;;;;1.13;0.60;;;15.40;99.90;;;;;;5093455;28;20419;-78
2022/09/04 03:12:59;;;;;;;1.63;1.13;;;15.40;99.90;;;;;;5093351;28;20479;-78
2022/09/04 03:15:33;;;;;;;0.40;0.30;;;15.40;99.90;;;;;;5093345;28;20436;-82
2022/09/04 03:18:05;;;;;;;0.87;0.53;;;15.40;99.90;;;;;;5093399;28;20432;-83
2022/09/04 03:20:39;;;;;;;0.83;0.60;;;15.40;99.90;;;;;;5093281;28;20464;-83
2022/09/04 03:23:15;;;;;;;0.40;0.40;;;15.40;99.90;;;;;;5093257;28;20492;-83
2022/09/04 03:26:00;;;;;;;1.07;0.77;;;15.30;99.90;;;;;;5093124;28;20479;-83
2022/09/04 03:28:41;;;;;;;0.40;0.30;;;15.30;99.90;;;;;;5093322;28;20408;-83
2022/09/04 03:31:27;;;;;;;0.83;0.83;;;15.30;99.90;;;;;;5093305;28;20423;-83
2022/09/04 03:34:06;;;;;;;0.40;0.40;;;15.20;99.90;;;;;;5093224;28;20432;-83
2022/09/04 03:36:42;;;;;;;0.87;0.50;;;15.20;99.90;;;;;;5093187;28;20438;-82
2022/09/04 03:39:21;;;;;;;0.77;0.50;;;15.20;99.90;;;;;;5093188;28;20449;-83
2022/09/04 03:42:03;;;;;;;1.97;0.90;;;15.10;99.90;;;;;;5092988;28;20483;-82
2022/09/04 03:44:41;;;;;;;1.23;0.87;;;15.10;99.90;;;;;;5093163;28;20535;-83
2022/09/04 03:47:18;;;;;;;0.40;0.40;;;15.10;99.90;;;;;;5093099;28;20424;-83
2022/09/04 03:49:59;;;;;;;0.60;0.50;;;15.10;99.90;;;;;;5093085;28;20436;-83
2022/09/04 03:52:34;;;;;;;0.60;0.60;;;15.10;99.90;;;;;;5093151;28;20464;-83
2022/09/04 03:55:43;;;;;;;1.10;1.03;;;15.10;99.90;;;;;;5093068;28;20434;-83
2022/09/04 03:58:21;;;;;;;0.67;0.67;;;15.10;99.90;;;;;;5057143;28;20475;-83
2022/09/04 04:00:59;;;;;;;0.50;0.50;;;15.10;99.90;;;;;;5094645;28;20463;-83
2022/09/04 04:03:41;;;;;;;0.67;0.57;;;15.00;99.90;;;;;;5096303;28;20830;-83
2022/09/04 04:06:18;;;;;;;0.50;0.50;;;15.00;99.90;;;;;;5096598;28;20431;-83
2022/09/04 04:09:13;;;;;;;0.60;0.60;;;15.00;99.90;;;;;;5096212;28;20828;-83
2022/09/04 04:12:09;;;;;;;0.60;0.60;;;15.00;99.90;;;;;;5096108;28;20926;-83
2022/09/04 04:15:02;;;;;;;0.40;0.40;;;15.00;99.90;;;;;;5085925;28;20468;-83
2022/09/04 04:18:06;;;;;;;0.73;0.50;;;14.90;99.90;;;;;;5096115;28;20428;-83
2022/09/04 04:20:41;;;;;;;0.73;0.73;;;15.00;99.90;;;;;;5096288;28;20439;-83
2022/09/04 04:23:46;;;;;;;0.53;0.50;;;15.00;99.90;;;;;;5096224;28;20470;-83
2022/09/04 04:26:21;;;;;;;0.70;0.60;;;15.00;99.90;;;;;;5073906;28;21039;-83
2022/09/04 04:29:07;;;;;;;0.90;0.40;;;15.00;99.90;;;;;;5096201;28;20431;-83
2022/09/04 04:32:03;;;;;;;0.77;0.47;;;15.00;99.90;;;;;;5096037;28;20486;-83
2022/09/04 04:34:34;;;;;;;0.40;0.40;;;15.00;99.90;;;;;;5096004;28;20448;-83
2022/09/04 04:37:08;;;;;;;0.30;0.30;;;14.90;99.90;;;;;;5096025;28;20428;-83
2022/09/04 04:39:41;;;;;;;1.40;0.50;;;14.90;99.90;;;;;;5095940;28;20436;-83
2022/09/04 04:42:23;;;;;;;0.67;0.50;;;14.80;99.90;;;;;;5095789;28;20553;-83
2022/09/04 04:48:22;;;;;;;0.73;0.40;;;14.80;99.90;;;;;;5095859;28;20481;-83
2022/09/04 04:50:58;;;;;;;0.80;0.50;;;14.70;99.90;;;;;;5095961;28;20447;-83
2022/09/04 04:53:31;;;;;;;0.50;0.50;;;14.80;99.90;;;;;;5095840;28;20525;-83
2022/09/04 04:56:06;;;;;;;0.50;0.40;;;14.80;99.90;;;;;;5095335;28;20907;-83
2022/09/04 04:58:46;;;;;;;1.90;0.93;;;14.80;99.90;;;;;;5095612;28;20435;-84
2022/09/04 05:01:25;;;;;;;1.87;1.43;;;14.70;99.90;;;;;;5095803;28;20474;-83
2022/09/04 05:04:05;;;;;;;0.40;0.40;;;14.70;99.90;;;;;;5095505;28;20431;-83
2022/09/04 05:06:38;;;;;;;4.83;0.73;;;14.70;99.90;;;;;;5095134;28;20443;-83
2022/09/04 05:09:14;;;;;;;0.77;0.77;;;14.70;99.90;;;;;;5095392;28;20447;-83
2022/09/04 05:11:50;;;;;;;2.50;0.70;;;14.60;99.90;;;;;;5094589;28;20497;-83
2022/09/04 05:14:26;;;;;;;0.70;0.70;;;14.60;99.90;;;;;;5095265;28;20432;-83
2022/09/04 05:16:59;;;;;;;1.53;0.60;;;14.70;99.90;;;;;;5095241;28;20424;-83
2022/09/04 05:19:34;;;;;;;0.50;0.50;;;14.70;99.90;;;;;;5095160;28;20436;-83
2022/09/04 05:22:08;;;;;;;0.50;0.50;;;14.70;99.90;;;;;;5095025;28;20483;-83
2022/09/04 05:24:46;;;;;;;1.17;0.50;;;14.70;99.90;;;;;;5095038;28;20451;-83
2022/09/04 05:27:49;;;;;;;3.63;0.60;;;14.80;99.90;;;;;;5094615;28;20471;-83
2022/09/04 05:30:21;;;;;;;1.47;0.83;;;14.80;99.90;;;;;;5094799;28;20436;-83
2022/09/04 05:32:56;;;;;;;0.83;0.83;;;14.80;99.90;;;;;;5094561;28;20975;-83
2022/09/04 05:35:30;;;;;;;0.77;0.60;;;14.80;99.90;;;;;;5094650;28;20771;-83
2022/09/04 05:38:04;;;;;;;0.90;0.63;;;14.80;99.90;;;;;;5094857;28;20403;-82
2022/09/04 05:40:45;;;;;;;1.07;0.60;;;14.80;99.90;;;;;;5094769;28;20428;-83
2022/09/04 05:43:25;;;;;;;1.33;0.60;;;14.90;99.90;;;;;;5094394;28;20995;-83
2022/09/04 05:46:04;;;;;;;1.20;0.60;;;14.90;99.90;;;;;;5094351;28;20917;-83
2022/09/04 05:48:40;;;;;;;0.63;0.63;;;15.00;99.90;;;;;;5094667;28;20428;-83
2022/09/04 05:51:31;;;;;;;0.50;0.50;;;15.00;99.90;;;;;;5094248;28;20424;-83
2022/09/04 05:54:23;;;;;;;0.67;0.50;;;15.00;99.90;;;;;;5094196;28;20436;-83
2022/09/04 05:57:06;;;;;;;0.50;0.50;;;15.10;99.90;;;;;;5091940;28;20443;-84
2022/09/04 06:00:08;;;;;;;3.70;0.40;;;15.10;99.90;;;;;;5094468;28;20428;-83
2022/09/04 06:03:04;;;;;;;1.53;0.80;;;15.20;99.90;;;;;;5091391;28;20490;-83
2022/09/04 06:05:50;;;;;;;1.07;0.43;;;15.30;99.90;;;;;;5094323;28;20436;-83
2022/09/04 06:08:32;;;;;;;1.27;1.17;;;15.40;99.90;;;;;;5094282;28;20433;-83
2022/09/04 06:11:24;;;;;;;1.00;0.43;;;15.50;99.90;;;;;;5094295;28;20485;-83
2022/09/04 06:14:03;;;;;;;0.50;0.50;;;15.60;99.90;;;;;;5093877;28;20428;-83
2022/09/04 06:16:51;;;;;;;0.97;0.60;;;15.70;99.90;;;;;;5094141;28;20432;-83
2022/09/04 06:19:45;;;;;;;1.47;0.80;;;15.80;99.90;;;;;;5094138;28;20508;-83
2022/09/04 06:22:46;;;;;;;0.70;0.50;;;15.90;99.90;;;;;;5093923;28;20489;-83
2022/09/04 06:25:25;;;;;;;0.50;0.40;;;16.10;99.90;;;;;;5087873;28;20811;-83
2022/09/04 06:28:16;;;;;;;0.60;0.60;;;16.30;99.90;;;;;;5093626;28;20428;-83
2022/09/04 06:30:51;;;;;;;0.40;0.30;;;16.50;99.90;;;;;;5093919;28;20425;-83
2022/09/04 06:33:43;;;;;;;0.90;0.40;;;16.70;99.90;;;;;;5093794;28;20459;-83
2022/09/04 06:36:46;;;;;;;0.50;0.50;;;16.90;99.90;;;;;;5093866;28;20431;-83
2022/09/04 06:39:32;;;;;;;1.20;0.70;;;17.10;99.90;;;;;;5093721;28;20447;-83
2022/09/04 06:42:09;;;;;;;0.50;0.50;;;17.20;99.90;;;;;;5093597;28;20484;-83
2022/09/04 06:44:51;;;;;;;0.70;0.53;;;17.30;99.90;;;;;;5093689;28;20428;-83
2022/09/04 06:47:26;;;;;;;1.23;0.70;;;17.40;99.90;;;;;;5093715;28;20436;-84
2022/09/04 06:50:15;;;;;;;1.13;0.70;;;17.50;99.90;;;;;;5093630;28;20451;-84
2022/09/04 06:52:54;;;;;;;0.73;0.50;;;17.50;99.90;;;;;;5093593;28;20468;-83
2022/09/04 06:55:29;;;;;;;1.97;0.57;;;17.50;99.90;;;;;;5093629;28;20432;-84
2022/09/04 06:58:08;;;;;;;0.93;0.70;;;17.60;99.90;;;;;;5093238;28;20925;-84
2022/09/04 07:00:40;;;;;;;1.10;1.00;;;17.70;99.90;;;;;;5093554;28;20447;-84
2022/09/04 07:03:27;;;;;;;0.83;0.50;;;17.80;99.90;;;;;;5093336;28;20488;-83
2022/09/04 07:06:04;;;;;;;1.37;0.50;;;17.90;99.90;;;;;;5093534;28;20432;-83
2022/09/04 07:08:44;;;;;;;0.60;0.50;;;17.90;99.90;;;;;;5093502;28;20428;-83
2022/09/04 07:11:22;;;;;;;0.80;0.80;;;18.00;99.90;;;;;;5093366;28;20895;-83
2022/09/04 07:14:33;;;;;;;0.63;0.63;;;18.10;99.90;;;;;;5093327;28;20580;-84
2022/09/04 07:17:08;;;;;;;0.40;0.40;;;18.20;99.90;;;;;;5077698;28;20455;-83
2022/09/04 07:19:52;;;;;;;0.40;0.40;;;18.40;99.90;;;;;;5093389;28;20424;-83
2022/09/04 07:22:34;;;;;;;0.60;0.60;;;18.40;99.90;;;;;;5093207;28;20484;-84
2022/09/04 07:25:11;;;;;;;0.50;0.50;;;18.60;99.90;;;;;;5093323;28;20431;-84
2022/09/04 07:27:54;;;;;;;1.13;0.60;;;18.70;99.90;;;;;;5092831;28;20477;-83
2022/09/04 07:30:24;;;;;;;0.70;0.50;;;18.80;99.90;;;;;;5093859;28;20446;-83
2022/09/04 07:32:56;;;;;;;0.80;0.67;;;18.90;99.90;;;;;;5093166;28;20528;-83
2022/09/04 07:35:30;;;;;;;1.50;0.70;;;19.00;99.90;;;;;;5094414;28;20873;-84
2022/09/04 07:38:03;;;;;;;1.00;0.90;;;19.10;99.90;;;;;;5097133;28;20438;-84
2022/09/04 07:40:35;;;;;;;0.50;0.50;;;19.20;99.90;;;;;;5097076;28;20436;-84
2022/09/04 07:43:08;;;;;;;1.37;0.67;;;19.20;99.90;;;;;;5096954;28;20498;-84
2022/09/04 07:45:38;;;;;;;0.90;0.60;;;19.30;99.90;;;;;;5097032;28;20847;-84
2022/09/04 07:48:18;;;;;;;0.70;0.70;;;19.40;99.90;;;;;;5096913;28;20463;-85
2022/09/04 07:51:03;;;;;;;0.53;0.53;;;19.50;99.90;;;;;;5096969;28;20438;-84
2022/09/04 07:53:59;;;;;;;0.40;0.40;;;19.50;99.90;;;;;;5096495;28;20487;-84
2022/09/04 07:56:42;;;;;;;0.60;0.40;;;19.70;99.90;;;;;;5096557;28;20439;-84
2022/09/04 07:59:44;;;;;;;1.03;0.50;;;19.80;99.90;;;;;;5096482;28;20428;-84
2022/09/04 08:02:25;;;;;;;3.50;0.67;;;19.80;99.90;;;;;;5063825;28;20487;-84
2022/09/04 08:05:19;;;;;;;0.70;0.70;;;20.10;99.90;;;;;;5097212;28;20427;-83
2022/09/04 08:08:20;;;;;;;0.60;0.60;;;20.30;99.90;;;;;;5096566;28;20490;-84
2022/09/04 08:11:01;;;;;;;0.70;0.70;;;20.40;99.90;;;;;;5096546;28;20431;-84
2022/09/04 08:13:59;;;;;;;0.83;0.60;;;20.50;99.90;;;;;;5096439;28;20499;-84
2022/09/04 08:16:34;;;;;;;0.40;0.40;;;20.50;99.90;;;;;;5096737;28;20456;-84
2022/09/04 08:19:23;;;;;;;0.70;0.40;;;20.60;99.90;;;;;;5096367;28;20427;-84
2022/09/04 08:21:53;;;;;;;0.60;0.40;;;20.70;99.90;;;;;;5093588;28;20484;-83
2022/09/04 08:24:52;;;;;;;2.43;0.80;;;20.80;99.90;;;;;;5096572;28;20779;-85
2022/09/04 08:27:33;;;;;;;0.87;0.50;;;20.80;99.90;;;;;;5093586;28;20544;-84
2022/09/04 08:30:05;;;;;;;0.50;0.50;;;20.80;99.90;;;;;;5096259;28;20439;-85
2022/09/04 08:32:54;;;;;;;0.50;0.40;;;21.00;99.90;;;;;;5075848;28;20468;-84
2022/09/04 08:35:26;;;;;;;0.50;0.40;;;21.10;99.90;;;;;;5075515;28;20948;-84
2022/09/04 08:38:08;;;;;;;0.40;0.40;;;21.40;99.90;;;;;;5075509;28;20428;-84
2022/09/04 08:41:13;;;;;;;0.80;0.80;;;21.30;99.90;;;;;;5075803;28;20433;-84
2022/09/04 08:44:21;;;;;;;0.53;0.43;;;21.40;99.90;;;;;;5075284;28;21021;-84
2022/09/04 08:47:10;;;;;;;0.40;0.40;;;21.50;99.90;;;;;;5074520;28;20432;-84
2022/09/04 08:50:08;;;;;;;0.57;0.57;;;21.80;99.90;;;;;;5075331;28;20443;-84
2022/09/04 08:53:03;;;;;;;0.60;0.50;;;22.00;99.90;;;;;;5075044;28;20473;-84
2022/09/04 08:55:55;;;;;;;0.50;0.43;;;22.10;99.90;;;;;;5066092;28;20452;-85
2022/09/04 08:59:06;;;;;;;1.00;0.53;;;22.20;99.90;;;;;;5075338;28;20433;-85
2022/09/04 09:02:24;;;;;;;2.10;1.07;;;22.40;99.90;;;;;;5018431;28;20566;-84
2022/09/04 09:05:22;;;;;;;0.30;0.30;;;22.60;99.90;;;;;;5016192;28;20459;-84
2022/09/04 09:08:20;;;;;;;0.57;0.47;;;22.90;99.90;;;;;;5075271;28;20433;-84
2022/09/04 09:11:18;;;;;;;0.70;0.70;;;23.00;99.90;;;;;;5075157;28;20193;-84
2022/09/04 09:14:23;;;;;;;0.57;0.50;;;23.00;99.90;;;;;;5075089;28;20218;-84
2022/09/04 09:17:04;;;;;;;1.70;0.70;;;23.20;99.90;;;;;;5075085;28;20198;-84
2022/09/04 09:19:44;;;;;;;0.50;0.47;;;23.50;99.90;;;;;;5075056;28;20190;-84
2022/09/04 09:22:28;;;;;;;0.70;0.70;;;23.90;99.90;;;;;;5074496;28;20685;-84
2022/09/04 09:25:14;;;;;;;0.70;0.60;;;24.30;99.90;;;;;;5074586;28;20190;-85
2022/09/04 09:28:22;;;;;;;0.57;0.52;;;24.50;99.90;;;;;;5074370;28;20230;-84
2022/09/04 09:31:27;;;;;;;0.60;0.60;;;24.70;99.90;;;;;;5052557;28;20237;-84
2022/09/04 09:34:27;;;;;;;0.50;0.50;;;24.60;99.90;;;;;;5064337;28;20208;-85
2022/09/04 09:37:12;;;;;;;0.60;0.50;;;24.50;99.90;;;;;;5063247;28;20202;-84
2022/09/04 09:40:10;;;;;;;1.20;0.80;;;24.30;99.90;;;;;;5074552;28;20648;-84
2022/09/04 09:43:18;;;;;;;0.52;0.50;;;24.20;99.90;;;;;;5074371;28;20773;-84
2022/09/04 09:46:17;;;;;;;0.60;0.60;;;24.30;99.90;;;;;;5074234;28;20534;-82
2022/09/04 09:49:22;;;;;;;1.07;0.70;;;24.50;99.90;;;;;;5052927;28;20206;-84
2022/09/04 09:52:09;;;;;;;0.80;0.60;;;24.60;99.90;;;;;;5068818;28;20232;-84
2022/09/04 09:55:10;;;;;;;0.50;0.50;;;24.60;99.90;;;;;;5073958;28;20646;-83
2022/09/04 09:58:14;;;;;;;0.73;0.60;;;24.70;99.90;;;;;;5074502;28;20205;-84
2022/09/04 10:00:57;;;;;;;1.02;0.60;;;24.50;99.90;;;;;;5070980;28;20202;-84
2022/09/04 10:04:05;;;;;;;0.57;0.57;;;24.30;99.90;;;;;;5073934;28;20229;-82
2022/09/04 10:07:09;;;;;;;0.40;0.40;;;24.40;99.90;;;;;;5073692;28;20202;-83
2022/09/04 10:10:21;;;;;;;0.40;0.40;;;24.40;99.90;;;;;;5073939;28;20205;-83
2022/09/04 10:13:19;;;;;;;0.50;0.40;;;24.40;99.90;;;;;;5073538;28;20230;-84
2022/09/04 10:16:27;;;;;;;0.50;0.50;;;24.10;99.90;;;;;;5074406;28;20206;-84
2022/09/04 10:19:35;;;;;;;0.40;0.40;;;24.00;99.90;;;;;;5073711;28;20206;-80
2022/09/04 10:22:26;;;;;;;0.73;0.52;;;24.00;99.90;;;;;;5031227;28;20229;-83
2022/09/04 10:25:30;;;;;;;0.55;0.47;;;24.40;99.90;;;;;;5073815;28;20190;-82
2022/09/04 10:28:14;;;;;;;0.50;0.50;;;24.60;99.90;;;;;;5071249;28;20202;-84
2022/09/04 10:31:08;;;;;;;0.50;0.40;;;24.60;99.90;;;;;;5073719;28;20186;-84
2022/09/04 10:33:49;;;;;;;0.50;0.50;;;24.70;99.90;;;;;;5073592;28;20222;-84
2022/09/04 10:36:28;;;;;;;0.80;0.68;;;25.00;99.90;;;;;;5073672;28;20186;-78
2022/09/04 10:42:12;;;;;;;0.50;0.50;;;25.40;99.90;;;;;;5073279;28;20259;-78
2022/09/04 10:44:57;;;;;;;1.17;0.60;;;25.10;99.90;;;;;;5074216;28;20548;-78
2022/09/04 10:47:37;;;;;;;2.15;1.05;;;24.80;99.90;;;;;;5073480;28;20190;-78
2022/09/04 10:50:29;;;;;;;0.47;0.47;;;24.40;99.90;;;;;;5073574;28;20209;-80
2022/09/04 10:53:14;;;;;;;0.40;0.35;;;24.10;99.90;;;;;;5073345;28;20228;-81
2022/09/04 10:55:56;;;;;;;0.50;0.40;;;24.00;99.90;;;;;;5073453;28;20208;-81
2022/09/04 10:58:29;;;;;;;0.50;0.50;;;23.80;99.90;;;;;;5073127;28;20653;-81
2022/09/04 11:01:35;;;;;;;0.57;0.57;;;23.60;99.90;;;;;;5073409;28;20194;-81
2022/09/04 11:04:54;;;;;;;0.43;0.40;;;23.40;99.90;;;;;;5066621;28;20230;-79
2022/09/04 11:07:55;;;;;;;0.40;0.40;;;23.30;99.90;;;;;;5073319;28;20186;-79
2022/09/04 11:10:40;;;;;;;0.50;0.50;;;23.20;99.90;;;;;;5074487;28;20190;-81
2022/09/04 11:13:40;;;;;;;4.53;0.50;;;23.10;99.90;;;;;;5077202;28;20229;-81
2022/09/04 11:16:24;;;;;;;0.53;0.53;;;23.10;99.90;;;;;;5077539;28;20209;-81
2022/09/04 11:19:09;;;;;;;3.83;0.47;;;23.10;99.90;;;;;;5076976;28;20653;-81
2022/09/04 11:22:08;;;;;;;0.40;0.30;;;23.10;99.90;;;;;;5077170;28;20194;-81
2022/09/04 11:25:05;;;;;;;0.87;0.60;;;23.10;99.90;;;;;;5077113;28;20347;-81
2022/09/04 11:28:05;;;;;;;0.50;0.47;;;23.00;99.90;;;;;;5074423;28;20238;-81
2022/09/04 11:30:44;;;;;;;0.70;0.60;;;22.90;99.90;;;;;;5077052;28;20186;-81
2022/09/04 11:33:42;;;;;;;0.80;0.60;;;23.10;99.90;;;;;;5076948;28;20279;-81
2022/09/04 11:36:34;;;;;;;0.50;0.50;;;23.20;99.90;;;;;;5077001;28;20197;-81
2022/09/04 11:39:50;;;;;;;0.80;0.47;;;23.30;99.90;;;;;;5076869;28;20436;-80
2022/09/04 11:42:56;;;;;;;0.40;0.40;;;23.40;99.90;;;;;;5076482;28;20225;-81
2022/09/04 11:45:50;;;;;;;0.50;0.50;;;23.50;99.90;;;;;;5036410;28;20672;-81
2022/09/04 11:48:57;;;;;;;0.57;0.50;;;23.40;99.90;;;;;;5076495;28;20186;-82
2022/09/04 11:51:54;;;;;;;0.77;0.50;;;23.40;99.90;;;;;;5065772;28;20212;-81
2022/09/04 11:54:52;;;;;;;0.50;0.50;;;23.60;99.90;;;;;;5076454;28;20198;-82
2022/09/04 11:57:30;;;;;;;0.60;0.60;;;23.80;99.90;;;;;;5043556;28;20206;-82
2022/09/04 12:00:07;;;;;;;0.50;0.43;;;24.00;99.90;;;;;;5076396;28;20229;-82
2022/09/04 12:03:11;;;;;;;1.10;0.60;;;24.20;99.90;;;;;;5076006;28;20251;-83
2022/09/04 12:05:59;;;;;;;0.82;0.57;;;24.20;99.90;;;;;;5076057;28;20237;-83
2022/09/04 12:08:51;;;;;;;0.50;0.50;;;24.20;99.90;;;;;;5077070;28;20549;-82
2022/09/04 12:11:47;;;;;;;0.60;0.53;;;24.10;99.90;;;;;;5076279;28;20320;-82
2022/09/04 12:14:33;;;;;;;0.50;0.50;;;24.00;99.90;;;;;;5076090;28;20194;-83
2022/09/04 12:17:38;;;;;;;0.40;0.40;;;24.00;99.90;;;;;;5076180;28;20182;-83
2022/09/04 12:20:31;;;;;;;0.60;0.50;;;23.90;99.90;;;;;;5076191;28;20186;-83
2022/09/04 12:23:17;;;;;;;0.67;0.50;;;23.80;99.90;;;;;;5075474;28;20229;-82
2022/09/04 12:26:17;;;;;;;0.60;0.50;;;23.60;99.90;;;;;;5075485;28;20230;-83
2022/09/04 12:29:38;;;;;;;0.53;0.53;;;23.60;99.90;;;;;;5075932;28;20194;-82
2022/09/04 12:32:46;;;;;;;0.57;0.50;;;23.30;99.90;;;;;;4994100;28;20829;-82
2022/09/04 12:35:49;;;;;;;0.50;0.50;;;23.20;99.90;;;;;;4994231;28;20224;-80
2022/09/04 12:38:46;;;;;;;0.40;0.40;;;23.00;99.90;;;;;;5072992;28;20241;-80
2022/09/04 12:41:17;;;;;;;0.50;0.50;;;22.90;99.90;;;;;;5074121;28;20875;-80
2022/09/04 12:44:00;;;;;;;0.60;0.40;;;22.80;99.90;;;;;;5075298;28;20475;-80
2022/09/04 12:46:40;;;;;;;1.13;0.57;;;22.80;99.90;;;;;;5075610;28;20436;-79
2022/09/04 12:49:33;;;;;;;0.40;0.40;;;22.70;99.90;;;;;;5075612;28;20429;-80
2022/09/04 12:52:08;;;;;;;3.80;0.70;;;22.80;99.90;;;;;;5075424;28;20468;-81
2022/09/04 12:54:49;;;;;;;0.80;0.60;;;22.80;99.90;;;;;;5075211;28;20425;-80
2022/09/04 12:57:31;;;;;;;0.60;0.60;;;22.80;99.90;;;;;;5075442;28;20799;-79
2022/09/04 13:00:06;;;;;;;0.50;0.50;;;22.80;99.90;;;;;;5075427;28;20527;-79
2022/09/04 13:02:51;;;;;;;0.50;0.50;;;22.90;99.90;;;;;;5074997;28;20247;-80
2022/09/04 13:05:41;;;;;;;0.40;0.40;;;23.00;99.90;;;;;;5074994;28;20550;-82
2022/09/04 13:08:19;;;;;;;0.63;0.50;;;22.90;99.90;;;;;;5075252;28;20182;-82
2022/09/04 13:10:58;;;;;;;0.60;0.60;;;23.00;99.90;;;;;;5075156;28;20182;-82
2022/09/04 13:13:35;;;;;;;0.93;0.50;;;23.00;99.90;;;;;;5074733;28;20755;-82
2022/09/04 13:16:13;;;;;;;0.43;0.43;;;22.90;99.90;;;;;;5074713;28;20646;-82
2022/09/04 13:18:50;;;;;;;1.53;0.60;;;23.00;99.90;;;;;;5075060;28;20186;-82
2022/09/04 13:21:29;;;;;;;0.50;0.50;;;23.00;99.90;;;;;;5074996;28;20191;-82
2022/09/04 13:24:11;;;;;;;0.50;0.50;;;23.10;99.90;;;;;;5074602;28;20284;-82
2022/09/04 13:27:08;;;;;;;0.53;0.50;;;23.10;99.90;;;;;;5074468;28;20256;-82
2022/09/04 13:29:50;;;;;;;0.60;0.40;;;23.10;99.90;;;;;;5074852;28;20186;-82
2022/09/04 13:32:53;;;;;;;0.40;0.40;;;23.10;99.90;;;;;;5074316;28;20721;-82
2022/09/04 13:35:35;;;;;;;0.50;0.50;;;23.10;99.90;;;;;;5074729;28;20205;-80
2022/09/04 13:38:21;;;;;;;0.90;0.50;;;23.00;99.90;;;;;;5074694;28;20273;-79
2022/09/04 13:41:13;;;;;;;1.60;0.63;;;22.90;99.90;;;;;;5074554;28;20428;-80
2022/09/04 13:44:09;;;;;;;0.60;0.60;;;22.80;99.90;;;;;;5074057;28;20484;-79
2022/09/04 13:46:40;;;;;;;0.67;0.50;;;22.70;99.90;;;;;;5074113;28;20190;-79
2022/09/04 13:49:13;;;;;;;0.60;0.60;;;22.70;99.90;;;;;;5074110;28;20429;-79
2022/09/04 13:51:45;;;;;;;0.70;0.70;;;22.60;99.90;;;;;;5074258;28;20441;-79
2022/09/04 13:54:17;;;;;;;1.10;0.60;;;22.70;99.90;;;;;;5074296;28;20432;-79
2022/09/04 13:56:50;;;;;;;0.67;0.60;;;22.80;99.90;;;;;;5073917;28;20931;-79
2022/09/04 13:59:20;;;;;;;0.50;0.50;;;22.80;99.90;;;;;;5073876;28;20425;-79
2022/09/04 14:01:53;;;;;;;0.60;0.60;;;22.90;99.90;;;;;;5073845;28;20460;-79
2022/09/04 14:04:25;;;;;;;0.60;0.60;;;22.90;99.90;;;;;;5074085;28;20502;-79
2022/09/04 14:06:57;;;;;;;0.50;0.40;;;23.00;99.90;;;;;;5074030;28;20436;-79
2022/09/04 14:09:24;;;;;;;0.50;0.50;;;23.00;99.90;;;;;;5073686;28;20661;-79
2022/09/04 14:12:17;;;;;;;1.17;0.63;;;23.00;99.90;;;;;;5073871;28;20221;-79
2022/09/04 14:15:12;;;;;;;0.40;0.40;;;22.90;99.90;;;;;;5073735;28;20436;-79
2022/09/04 14:17:48;;;;;;;0.50;0.47;;;22.90;99.90;;;;;;5073923;28;20205;-79
2022/09/04 14:20:21;;;;;;;0.40;0.40;;;22.90;99.90;;;;;;5073866;28;20497;-79
2022/09/04 14:22:58;;;;;;;0.80;0.50;;;23.00;99.90;;;;;;5073774;28;20836;-79